Flight Track Log - Related Links

Times and Time Zones

All times are in EDT time to prevent confusion due to time zone crossing. See the N820V flight status page for this flight to view local times or setup timezone preferences in your user account.

Time Position Orientation Groundspeed Altitude Reporting Facility
EDT Latitude Longitude Course Direction KTS MPH feet Rate Location/Type
Sun 04:34:12 PM 44.4308 -88.1794 217° Southwest 120 138 2,700  Level Chicago Center
Sun 04:35:14 PM 44.4058 -88.2036 215° Southwest 112 129 3,400 629 Climbing Chicago Center
Sun 04:36:16 PM 44.3808 -88.2275 214° Southwest 109 125 4,000 290 Climbing Chicago Center
Sun 04:37:18 PM 44.3519 -88.2594 218° Southwest 126 145 4,000  Level Chicago Center
Sun 04:38:00 PM 44.2907 -88.3257 216° Southwest  Level FlightAware
Sun 04:38:20 PM 44.3203 -88.2953 219° Southwest 144 166 4,000  Level Chicago Center
Sun 04:39:00 PM 44.2588 -88.3591 217° Southwest  Level Estimated
Sun 04:39:22 PM 44.2825 -88.3372 218° Southwest 145 167 4,000  Level Chicago Center
Sun 04:40:24 PM 44.2514 -88.3728 219° Southwest 145 167 4,000  Level Chicago Center
Sun 04:41:26 PM 44.2186 -88.4094 219° Southwest 148 170 4,000  Level Chicago Center
Sun 04:42:28 PM 44.1864 -88.4469 220° Southwest 150 173 4,000  Level Chicago Center
Sun 04:43:31 PM 44.1561 -88.4847 222° Southwest 148 170 4,000  Level Chicago Center
Sun 04:44:33 PM 44.1250 -88.5208 220° Southwest 148 170 4,000  Level Chicago Center
Sun 04:45:35 PM 44.0858 -88.5636 218° Southwest 148 170 4,000  Level Chicago Center
Sun 04:46:37 PM 44.0519 -88.5958 214° Southwest 149 171 4,000  Level Chicago Center
Sun 04:47:39 PM 44.0169 -88.6278 213° Southwest 150 173 4,000  Level Chicago Center
Sun 04:48:41 PM 43.9808 -88.6581 211° Southwest 151 174 4,000  Level Chicago Center
Sun 04:49:43 PM 43.9433 -88.6869 209° Southwest 153 176 4,000  Level Chicago Center
Sun 04:50:45 PM 43.8992 -88.7211 209° Southwest 153 176 4,000  Level Chicago Center
Sun 04:51:47 PM 43.8622 -88.7519 211° Southwest 154 177 4,000  Level Chicago Center
Sun 04:52:49 PM 43.8264 -88.7833 212° Southwest 154 177 4,000  Level Chicago Center
Sun 04:53:51 PM 43.7908 -88.8178 215° Southwest 155 178 4,000  Level Chicago Center
Sun 04:54:54 PM 43.7564 -88.8575 220° Southwest 158 182 4,000  Level Chicago Center
Sun 04:55:56 PM 43.7225 -88.8964 220° Southwest 159 183 4,000  Level Chicago Center
Sun 04:56:58 PM 43.6833 -88.9425 220° Southwest 157 181 4,000  Level Chicago Center
Sun 04:58:00 PM 43.6506 -88.9825 221° Southwest 157 181 4,000  Level Chicago Center
Sun 04:59:02 PM 43.6172 -89.0211 220° Southwest 157 181 4,000  Level Chicago Center
Sun 05:00:04 PM 43.5842 -89.0622 222° Southwest 159 183 4,000  Level Chicago Center
Sun 05:01:06 PM 43.5519 -89.1017 222° Southwest 158 182 4,000  Level Chicago Center
Sun 05:02:08 PM 43.5117 -89.1450 218° Southwest 155 178 4,000  Level Chicago Center
Sun 05:03:10 PM 43.4747 -89.1747 210° Southwest 154 177 4,000 48 Level Chicago Center
Sun 05:04:12 PM 43.4383 -89.2078 213° Southwest 156 180 4,100 48 Climbing Chicago Center
Sun 05:05:15 PM 43.4011 -89.2392 211° Southwest 156 180 4,100 -48 Level Chicago Center
Sun 05:06:17 PM 43.3628 -89.2697 210° Southwest 158 182 4,000 -48 Descending Chicago Center
Sun 05:07:19 PM 43.3186 -89.3075 212° Southwest 157 181 4,000  Level Chicago Center
Sun 05:08:21 PM 43.2822 -89.3367 210° Southwest 155 178 4,000 -194 Level Chicago Center
Sun 05:09:23 PM 43.2447 -89.3686 212° Southwest 156 180 3,600 -435 Descending Chicago Center
Sun 05:10:25 PM 43.2067 -89.3997 211° Southwest 158 182 3,100 -484 Descending Chicago Center
Sun 05:12:00 PM 43.1615 -89.4616 225° Southwest  Level FlightAware
Sun 05:19:00 PM 43.1000 -89.5167 200° South  Level FlightAware
Sun 05:20:00 PM 43.1143 -89.5315 200° South  Level Estimated

Login

Don't have an account? Register now (free) for customized features, flight alerts, and more!